Time;durP1;ratioP1;P1;durP2;ratioP2;P2;SDS_P1;SDS_P2;PMS_P1;PMS_P2;Temp;Humidity;BMP_temperature;BMP_pressure;BME280_temperature;BME280_humidity;BME280_pressure;Samples;Min_cycle;Max_cycle;Signal;HPM_P1;HPM_P2
2021/01/04 00:00:23;;;;;;;1.27;1.23;;;;;;;21.29;39.71;100859.84;5034847;28;20275;-63
2021/01/04 00:03:01;;;;;;;1.10;1.10;;;;;;;21.31;39.59;100856.97;5035038;28;20223;-62
2021/01/04 00:05:43;;;;;;;1.20;1.10;;;;;;;21.33;39.56;100855.75;5052149;28;20224;-59
2021/01/04 00:08:44;;;;;;;1.10;1.10;;;;;;;21.35;39.51;100853.69;5036410;28;20184;-65
2021/01/04 00:11:22;;;;;;;0.90;0.90;;;;;;;21.36;39.44;100854.53;5035468;28;20195;-66
2021/01/04 00:13:53;;;;;;;1.20;1.10;;;;;;;21.36;39.59;100846.38;5035001;28;20196;-66
2021/01/04 00:16:34;;;;;;;1.20;1.20;;;;;;;21.36;39.63;100849.09;5034833;28;20214;-63
2021/01/04 00:19:19;;;;;;;1.10;1.10;;;;;;;21.36;39.58;100849.09;5052291;28;20223;-63
2021/01/04 00:22:05;;;;;;;1.30;1.30;;;;;;;21.36;39.29;100849.94;5052218;28;20180;-63
2021/01/04 00:24:39;;;;;;;1.27;1.20;;;;;;;21.33;39.16;100844.00;5017980;28;20540;-62
2021/01/04 00:27:29;;;;;;;1.20;1.20;;;;;;;21.34;39.37;100851.16;5035034;28;20200;-62
2021/01/04 00:29:59;;;;;;;1.27;1.27;;;;;;;21.30;39.02;100853.41;5002443;28;20241;-64
2021/01/04 00:32:33;;;;;;;1.20;1.20;;;;;;;21.28;39.14;100849.97;5035313;28;20180;-64
2021/01/04 00:35:00;;;;;;;1.20;1.20;;;;;;;21.26;38.94;100852.03;5035247;28;20208;-64
2021/01/04 00:37:52;;;;;;;1.20;1.20;;;;;;;21.24;39.33;100853.25;5052215;28;20195;-64
2021/01/04 00:40:27;;;;;;;1.20;1.20;;;;;;;21.27;39.11;100850.16;5013904;28;20200;-64
2021/01/04 00:42:54;;;;;;;1.20;1.20;;;;;;;21.24;39.43;100850.53;5051735;28;20208;-63
2021/01/04 00:45:31;;;;;;;1.10;1.10;;;;;;;21.24;39.17;100845.94;5051775;28;20265;-63
2021/01/04 00:48:19;;;;;;;1.10;1.10;;;;;;;21.24;39.42;100851.38;5018188;28;20219;-62
2021/01/04 00:50:45;;;;;;;1.30;1.20;;;;;;;21.22;39.44;100837.06;5018463;28;20188;-65
2021/01/04 00:53:16;;;;;;;0.90;0.90;;;;;;;21.24;39.45;100845.09;5050864;28;20180;-63
2021/01/04 00:55:45;;;;;;;1.00;1.00;;;;;;;21.23;39.60;100841.50;5050903;28;20324;-62
2021/01/04 00:58:23;;;;;;;1.10;1.10;;;;;;;21.27;39.49;100833.84;5033422;28;20192;-63
2021/01/04 01:01:20;;;;;;;1.00;1.00;;;;;;;21.28;39.55;100839.09;5050987;28;20188;-64
2021/01/04 01:04:00;;;;;;;1.03;1.03;;;;;;;21.30;39.53;100838.94;5033424;28;20220;-61
2021/01/04 01:07:06;;;;;;;1.13;1.13;;;;;;;21.32;39.54;100843.16;5033642;28;20185;-66
2021/01/04 01:09:35;;;;;;;1.20;1.20;;;;;;;21.35;39.52;100847.41;5036189;28;20221;-66
2021/01/04 01:12:10;;;;;;;1.00;1.00;;;;;;;21.35;39.53;100844.69;5050982;28;20577;-66
2021/01/04 01:14:59;;;;;;;1.27;1.17;;;;;;;21.35;39.69;100847.41;5052751;28;20260;-60
2021/01/04 01:17:38;;;;;;;0.93;0.93;;;;;;;21.35;39.37;100847.41;5039853;28;20589;-66
2021/01/04 01:20:06;;;;;;;1.20;1.10;;;;;;;21.35;39.32;100848.25;5020319;28;20258;-65
2021/01/04 01:22:35;;;;;;;1.10;1.10;;;;;;;21.35;39.61;100848.25;5054145;28;20663;-66
2021/01/04 01:25:06;;;;;;;1.00;1.00;;;;;;;21.35;39.46;100848.25;5036715;28;20283;-64
2021/01/04 01:27:34;;;;;;;1.20;1.20;;;;;;;21.35;39.23;100856.41;5037250;28;20211;-61
2021/01/04 01:30:31;;;;;;;1.10;1.10;;;;;;;21.35;39.42;100850.13;5036622;28;20633;-61
2021/01/04 01:33:13;;;;;;;1.00;1.00;;;;;;;21.34;39.25;100856.59;5054558;28;20191;-61
2021/01/04 01:35:51;;;;;;;1.00;1.00;;;;;;;21.31;39.17;100856.97;5036659;28;20176;-66
2021/01/04 01:38:41;;;;;;;1.07;1.07;;;;;;;21.29;39.10;100854.41;5021641;28;20180;-62
2021/01/04 01:41:16;;;;;;;1.07;1.07;;;;;;;21.28;39.13;100857.31;5022453;28;20197;-63
2021/01/04 01:43:48;;;;;;;1.20;1.20;;;;;;;21.26;39.10;100856.63;5036949;28;20223;-63
2021/01/04 01:46:30;;;;;;;1.00;1.00;;;;;;;21.25;39.08;100860.41;5053907;28;20195;-62
2021/01/04 01:49:20;;;;;;;0.93;0.93;;;;;;;21.24;39.14;100855.97;5021498;28;20202;-66
2021/01/04 01:52:20;;;;;;;1.00;1.00;;;;;;;21.25;38.87;100863.13;5022020;28;20611;-66
2021/01/04 01:55:07;;;;;;;0.80;0.80;;;;;;;21.24;39.14;100855.97;5053812;28;20199;-65
2021/01/04 01:58:00;;;;;;;1.07;1.07;;;;;;;21.22;39.26;100855.28;5053620;28;20214;-61
2021/01/04 02:00:36;;;;;;;0.90;0.90;;;;;;;21.19;39.36;100859.22;5036057;28;20263;-62
2021/01/04 02:03:13;;;;;;;1.00;1.00;;;;;;;21.18;39.31;100857.53;5036068;28;20651;-67
2021/01/04 02:05:54;;;;;;;1.10;1.10;;;;;;;21.18;39.46;100852.09;5036058;28;20194;-64
2021/01/04 02:08:25;;;;;;;0.80;0.80;;;;;;;21.19;39.46;100861.09;5021096;28;20181;-64
2021/01/04 02:10:54;;;;;;;1.00;1.00;;;;;;;21.20;39.73;100860.06;5020210;28;20211;-64
2021/01/04 02:13:38;;;;;;;0.90;0.90;;;;;;;21.20;39.65;100849.19;5036147;28;20582;-63
2021/01/04 02:16:10;;;;;;;1.00;1.00;;;;;;;21.24;39.81;100847.81;5035944;28;20539;-59
2021/01/04 02:18:39;;;;;;;1.13;1.00;;;;;;;21.24;39.47;100845.94;5053540;28;20191;-62
2021/01/04 02:21:36;;;;;;;1.00;1.00;;;;;;;21.27;39.40;100848.28;5036096;28;20251;-62
2021/01/04 02:24:10;;;;;;;0.80;0.80;;;;;;;21.28;39.65;100849.13;4966243;28;20253;-62
2021/01/04 02:26:39;;;;;;;0.97;0.97;;;;;;;21.29;39.66;100856.28;5052828;28;20624;-66
2021/01/04 02:29:07;;;;;;;0.90;0.90;;;;;;;21.30;39.29;100850.69;5053114;28;20192;-65
2021/01/04 02:31:34;;;;;;;0.83;0.83;;;;;;;21.31;39.59;100851.53;5035704;28;20186;-65
2021/01/04 02:34:01;;;;;;;1.20;1.20;;;;;;;21.30;39.40;100853.41;5035337;28;20192;-62
2021/01/04 02:36:27;;;;;;;0.90;0.90;;;;;;;21.31;39.11;100851.53;5046500;28;20188;-65
2021/01/04 02:39:19;;;;;;;0.80;0.80;;;;;;;21.32;39.48;100845.88;5019247;28;20188;-62
2021/01/04 02:42:14;;;;;;;0.77;0.77;;;;;;;21.32;39.29;100845.88;5022333;28;20636;-62
2021/01/04 02:44:41;;;;;;;1.00;1.00;;;;;;;21.29;39.18;100859.00;5052482;28;20211;-60
2021/01/04 02:47:25;;;;;;;1.00;1.00;;;;;;;21.30;39.12;100844.38;5051666;28;20184;-63
2021/01/04 02:50:09;;;;;;;0.83;0.83;;;;;;;21.25;39.13;100849.50;5052740;28;20520;-62
2021/01/04 02:53:02;;;;;;;1.00;1.00;;;;;;;21.22;39.09;100850.69;5052895;28;20306;-60
2021/01/04 02:55:51;;;;;;;1.07;1.00;;;;;;;21.20;39.20;100844.56;5052771;28;20200;-60
2021/01/04 02:58:41;;;;;;;0.77;0.77;;;;;;;21.20;39.01;100851.91;5051836;28;20194;-63
2021/01/04 03:01:17;;;;;;;0.80;0.80;;;;;;;21.19;39.07;100858.38;5038329;28;20205;-63
2021/01/04 03:03:43;;;;;;;0.90;0.90;;;;;;;21.15;39.17;100858.75;5056701;28;20218;-59
2021/01/04 03:06:11;;;;;;;0.90;0.90;;;;;;;21.15;39.21;100864.19;5054677;28;20271;-59
2021/01/04 03:08:37;;;;;;;1.00;1.00;;;;;;;21.15;39.56;100863.34;5072280;28;20183;-59
2021/01/04 03:11:09;;;;;;;0.90;0.90;;;;;;;21.17;39.21;100860.44;5054581;28;20191;-63
2021/01/04 03:13:55;;;;;;;0.87;0.87;;;;;;;21.20;39.52;100865.50;5055223;28;20257;-64
2021/01/04 03:16:32;;;;;;;1.07;1.07;;;;;;;21.21;39.37;100862.59;5055572;28;20607;-63
2021/01/04 03:19:03;;;;;;;0.83;0.83;;;;;;;21.23;39.77;100863.28;5037719;28;20206;-60
2021/01/04 03:21:29;;;;;;;0.80;0.80;;;;;;;21.23;39.68;100859.69;5054647;28;20532;-60
2021/01/04 03:23:55;;;;;;;0.90;0.90;;;;;;;21.25;39.69;100863.97;5071870;28;20220;-65
2021/01/04 03:26:26;;;;;;;0.90;0.90;;;;;;;21.28;39.76;100858.16;5037869;28;20187;-62
2021/01/04 03:28:53;;;;;;;1.00;1.00;;;;;;;21.28;39.65;100851.84;5054329;28;20592;-63
2021/01/04 03:31:19;;;;;;;0.73;0.73;;;;;;;21.31;39.37;100859.69;5072041;28;20194;-66
2021/01/04 03:33:45;;;;;;;1.00;1.00;;;;;;;21.31;39.34;100860.53;5072041;28;20277;-64
2021/01/04 03:36:13;;;;;;;0.90;0.90;;;;;;;21.32;39.46;100847.78;5071412;28;20447;-62
2021/01/04 03:38:39;;;;;;;0.90;0.90;;;;;;;21.34;39.50;100862.03;5071550;28;20191;-66
2021/01/04 03:41:05;;;;;;;0.90;0.90;;;;;;;21.35;39.38;100858.28;5071640;28;20194;-64
2021/01/04 03:43:31;;;;;;;0.90;0.90;;;;;;;21.34;39.24;100853.88;5071516;28;20212;-64
2021/01/04 03:45:57;;;;;;;0.83;0.83;;;;;;;21.33;38.97;100861.19;5071659;28;20493;-66
2021/01/04 03:48:23;;;;;;;0.80;0.80;;;;;;;21.32;38.98;100858.66;5071779;28;20179;-63
2021/01/04 03:50:52;;;;;;;1.00;1.00;;;;;;;21.32;39.05;100859.50;5071450;28;20187;-66
2021/01/04 03:53:19;;;;;;;0.80;0.80;;;;;;;21.30;39.17;100860.72;5053791;28;20203;-66
2021/01/04 03:55:45;;;;;;;0.80;0.80;;;;;;;21.27;39.00;100850.16;5053975;28;20763;-62
2021/01/04 03:58:11;;;;;;;0.80;0.80;;;;;;;21.27;39.14;100853.72;5071564;28;20201;-59
2021/01/04 04:00:37;;;;;;;0.87;0.87;;;;;;;21.26;39.17;100853.91;5071497;28;20183;-60
2021/01/04 04:03:04;;;;;;;1.00;1.00;;;;;;;21.26;38.93;100859.38;5053977;28;20195;-65
2021/01/04 04:05:31;;;;;;;0.77;0.77;;;;;;;21.25;39.21;100852.22;5053800;28;20227;-61
2021/01/04 04:07:58;;;;;;;0.80;0.80;;;;;;;21.24;39.04;100853.25;5071650;28;20272;-65
2021/01/04 04:10:24;;;;;;;0.80;0.80;;;;;;;21.22;39.29;100852.56;5071524;28;20618;-63
2021/01/04 04:12:50;;;;;;;0.90;0.90;;;;;;;21.22;39.08;100849.84;5071396;28;20183;-63
2021/01/04 04:15:17;;;;;;;0.80;0.80;;;;;;;21.20;39.19;100855.47;5071354;28;20199;-64
2021/01/04 04:17:43;;;;;;;0.70;0.70;;;;;;;21.20;39.32;100855.47;5071368;28;20623;-60
2021/01/04 04:20:11;;;;;;;0.70;0.70;;;;;;;21.19;39.20;100853.78;5053664;28;20242;-63
2021/01/04 04:22:37;;;;;;;0.90;0.90;;;;;;;21.19;38.90;100858.38;5071055;28;20184;-60
2021/01/04 04:25:05;;;;;;;0.70;0.70;;;;;;;21.19;39.17;100859.22;5053336;28;20659;-63
2021/01/04 04:27:32;;;;;;;0.90;0.90;;;;;;;21.20;39.37;100857.34;5071389;28;20219;-61
2021/01/04 04:29:58;;;;;;;0.90;0.90;;;;;;;21.20;39.62;100857.34;5071120;28;20183;-63
2021/01/04 04:32:24;;;;;;;0.80;0.80;;;;;;;21.21;39.59;100861.75;5071244;28;20266;-60
2021/01/04 04:34:50;;;;;;;0.70;0.70;;;;;;;21.23;39.44;100865.16;5071191;28;20203;-65
2021/01/04 04:37:16;;;;;;;0.70;0.70;;;;;;;21.23;39.86;100860.53;5071457;28;20190;-65
2021/01/04 04:39:42;;;;;;;0.80;0.80;;;;;;;21.26;39.51;100859.38;5071387;28;20192;-63
2021/01/04 04:42:11;;;;;;;0.70;0.70;;;;;;;21.29;39.42;100861.72;5071710;28;20184;-60
2021/01/04 04:44:43;;;;;;;0.70;0.70;;;;;;;21.31;39.42;100865.13;5053699;28;20237;-63
2021/01/04 04:47:18;;;;;;;0.80;0.80;;;;;;;21.32;39.37;100864.09;5054234;28;20187;-64
2021/01/04 04:50:23;;;;;;;0.77;0.77;;;;;;;21.35;39.53;100867.31;5057449;28;20266;-66
2021/01/04 04:52:57;;;;;;;0.87;0.87;;;;;;;21.35;39.34;100863.75;4957902;28;20199;-66
2021/01/04 04:55:38;;;;;;;0.70;0.70;;;;;;;21.36;39.24;100857.25;5044798;28;20219;-66
2021/01/04 04:58:26;;;;;;;0.90;0.90;;;;;;;21.34;39.31;100862.03;5074667;28;20236;-66
2021/01/04 05:01:09;;;;;;;0.70;0.70;;;;;;;21.35;39.23;100870.03;5057185;28;20600;-66
2021/01/04 05:03:53;;;;;;;0.80;0.80;;;;;;;21.35;39.09;100861.00;5074430;28;20544;-66
2021/01/04 05:07:24;;;;;;;0.80;0.80;;;;;;;21.34;39.16;100868.34;5074575;28;20301;-66
2021/01/04 05:09:56;;;;;;;0.80;0.80;;;;;;;21.32;38.87;100855.94;4960898;28;20218;-65
2021/01/04 05:12:35;;;;;;;0.80;0.80;;;;;;;21.29;39.04;100862.56;5057219;28;20196;-66
2021/01/04 05:15:22;;;;;;;0.70;0.70;;;;;;;21.26;38.91;100867.53;5041486;28;20628;-65
2021/01/04 05:18:06;;;;;;;0.90;0.90;;;;;;;21.24;39.11;100866.88;5074672;28;20187;-64
2021/01/04 05:20:53;;;;;;;0.70;0.70;;;;;;;21.22;39.03;100868.91;5074379;28;20249;-62
2021/01/04 05:23:28;;;;;;;0.80;0.80;;;;;;;21.19;38.93;100872.84;5074157;28;20211;-61
2021/01/04 05:26:12;;;;;;;0.80;0.80;;;;;;;21.20;39.10;100870.97;5074343;28;20486;-62
2021/01/04 05:28:50;;;;;;;0.70;0.70;;;;;;;21.19;39.03;100871.97;5074188;28;20194;-62
2021/01/04 05:31:36;;;;;;;0.70;0.70;;;;;;;21.17;39.30;100872.16;5074058;28;20184;-64
2021/01/04 05:34:24;;;;;;;0.70;0.70;;;;;;;21.19;39.43;100877.44;5057657;28;20379;-64
2021/01/04 05:36:53;;;;;;;0.80;0.80;;;;;;;21.18;39.30;100878.47;5074052;28;20215;-65
2021/01/04 05:39:31;;;;;;;0.90;0.90;;;;;;;21.19;39.53;100882.88;5056351;28;20198;-64
2021/01/04 05:42:25;;;;;;;0.80;0.80;;;;;;;21.22;39.32;100874.34;5073897;28;20195;-61
2021/01/04 05:44:59;;;;;;;0.90;0.90;;;;;;;21.23;39.31;100881.47;5073705;28;20365;-60
2021/01/04 05:47:33;;;;;;;0.87;0.87;;;;;;;21.24;39.39;100883.19;5056299;28;20194;-60
2021/01/04 05:50:14;;;;;;;0.70;0.70;;;;;;;21.26;39.51;100875.69;5024404;28;20183;-61
2021/01/04 05:52:40;;;;;;;0.70;0.70;;;;;;;21.28;39.42;100879.09;5056912;28;20181;-66
2021/01/04 05:55:07;;;;;;;0.80;0.80;;;;;;;21.28;39.17;100877.22;5073724;28;20203;-66
2021/01/04 05:57:44;;;;;;;0.80;0.80;;;;;;;21.31;39.30;100876.03;5056107;28;20265;-66
2021/01/04 06:00:10;;;;;;;0.90;0.90;;;;;;;21.30;39.43;100877.06;5073054;28;20562;-66
2021/01/04 06:02:36;;;;;;;0.67;0.67;;;;;;;21.30;39.04;100882.50;5073342;28;20534;-66
2021/01/04 06:05:11;;;;;;;0.80;0.80;;;;;;;21.32;39.32;100888.59;5055562;28;20220;-63
2021/01/04 06:07:38;;;;;;;0.70;0.70;;;;;;;21.30;39.00;100894.25;5073518;28;20191;-62
2021/01/04 06:10:05;;;;;;;0.80;0.80;;;;;;;21.30;38.93;100887.94;5055294;28;20266;-62
2021/01/04 06:12:39;;;;;;;0.70;0.70;;;;;;;21.29;38.90;100897.97;5072984;28;20191;-66
2021/01/04 06:15:07;;;;;;;0.90;0.90;;;;;;;21.26;38.92;100898.31;5055714;28;20208;-65
2021/01/04 06:17:38;;;;;;;0.70;0.70;;;;;;;21.26;39.04;100901.03;5055557;28;20266;-62
2021/01/04 06:20:38;;;;;;;0.90;0.90;;;;;;;21.23;38.99;100903.25;5039432;28;20198;-66
2021/01/04 06:23:11;;;;;;;0.80;0.80;;;;;;;21.20;38.81;100909.91;5073021;28;20658;-62
2021/01/04 06:25:37;;;;;;;0.80;0.80;;;;;;;21.18;38.79;100922.00;5073098;28;20191;-64
2021/01/04 06:28:04;;;;;;;0.80;0.80;;;;;;;21.17;39.08;100910.28;5073059;28;20533;-66
2021/01/04 06:30:31;;;;;;;0.80;0.80;;;;;;;21.17;38.85;100917.59;5055347;28;20526;-66
2021/01/04 06:33:11;;;;;;;0.80;0.80;;;;;;;21.15;38.84;100918.63;5073020;28;20190;-66
2021/01/04 06:35:37;;;;;;;0.93;0.93;;;;;;;21.13;39.15;100928.00;5039351;28;20541;-65
2021/01/04 06:38:24;;;;;;;0.77;0.77;;;;;;;21.13;39.14;100923.41;5055400;28;20195;-64
2021/01/04 06:40:50;;;;;;;0.90;0.90;;;;;;;21.11;39.36;100921.91;5072782;28;20184;-61
2021/01/04 06:43:19;;;;;;;0.70;0.70;;;;;;;21.13;39.44;100925.28;5072750;28;20220;-66
2021/01/04 06:46:07;;;;;;;0.70;0.70;;;;;;;21.15;39.57;100929.53;5072846;28;20184;-66
2021/01/04 06:48:44;;;;;;;0.70;0.70;;;;;;;21.17;39.58;100933.94;5072597;28;20253;-66
2021/01/04 06:51:36;;;;;;;0.80;0.80;;;;;;;21.18;39.72;100927.47;5055126;28;20230;-66
2021/01/04 06:54:15;;;;;;;0.70;0.70;;;;;;;21.21;39.40;100935.25;5054866;28;20300;-65
2021/01/04 06:56:53;;;;;;;0.80;0.80;;;;;;;21.22;39.67;100929.63;5055095;28;20180;-63
2021/01/04 06:59:39;;;;;;;0.73;0.73;;;;;;;21.25;39.76;100939.34;5072367;28;20202;-62
2021/01/04 07:02:29;;;;;;;0.70;0.70;;;;;;;21.27;39.59;100942.72;5039976;28;20183;-66
2021/01/04 07:05:33;;;;;;;0.93;0.93;;;;;;;21.29;39.31;100940.69;5054409;28;20225;-62
2021/01/04 07:08:08;;;;;;;1.00;1.00;;;;;;;21.29;39.30;100949.69;5072487;28;20187;-65
2021/01/04 07:10:50;;;;;;;1.50;1.40;;;;;;;21.31;39.25;100949.53;5055515;28;20618;-66
2021/01/04 07:13:30;;;;;;;1.20;1.20;;;;;;;21.35;39.52;100956.31;5054790;28;20192;-62
2021/01/04 07:16:30;;;;;;;1.50;1.40;;;;;;;21.36;39.62;100956.13;5042698;28;20184;-62
2021/01/04 07:19:28;;;;;;;1.20;1.20;;;;;;;21.40;39.36;100956.63;5019122;28;20180;-62
2021/01/04 07:22:07;;;;;;;1.30;1.20;;;;;;;21.43;39.65;100956.25;5032362;28;20210;-62
2021/01/04 07:24:33;;;;;;;1.47;1.10;;;;;;;21.43;39.59;100953.53;5018594;28;20223;-61
2021/01/04 07:27:17;;;;;;;1.17;1.00;;;;;;;21.49;39.71;100955.53;5051784;28;20250;-61
2021/01/04 07:30:09;;;;;;;1.13;1.13;;;;;;;21.54;39.64;100950.41;5036191;28;20188;-62
2021/01/04 07:32:54;;;;;;;2.33;1.17;;;;;;;21.56;39.81;100953.78;5035333;28;20206;-62
2021/01/04 07:35:25;;;;;;;1.83;1.20;;;;;;;21.61;39.58;100956.81;5071704;28;20255;-64
2021/01/04 07:37:59;;;;;;;1.20;1.20;;;;;;;21.66;39.68;100959.81;5071845;28;20179;-68
2021/01/04 07:40:41;;;;;;;1.13;1.03;;;;;;;21.71;39.58;100962.84;5038479;28;20241;-65
2021/01/04 07:43:32;;;;;;;2.30;1.13;;;;;;;21.76;39.73;100963.13;5053911;28;20206;-65
2021/01/04 07:45:58;;;;;;;19.35;2.22;;;;;;;21.70;40.41;100966.59;5062874;28;20879;-67
2021/01/04 07:48:43;;;;;;;2.37;1.03;;;;;;;21.82;39.89;100968.91;5038033;28;20188;-66
2021/01/04 07:51:44;;;;;;;1.43;1.10;;;;;;;21.90;40.51;100968.81;5019269;28;20690;-70
2021/01/04 07:54:16;;;;;;;2.33;1.40;;;;;;;21.95;40.82;100974.56;5036533;28;20261;-69
2021/01/04 07:57:25;;;;;;;3.10;1.00;;;;;;;21.99;40.63;100975.88;5051276;28;20264;-71
2021/01/04 08:00:08;;;;;;;0.93;0.90;;;;;;;22.03;40.94;100967.19;5020692;28;20242;-69
2021/01/04 08:02:56;;;;;;;3.80;1.20;;;;;;;22.07;40.82;100978.59;5019353;28;20282;-64
2021/01/04 08:05:43;;;;;;;2.07;1.30;;;;;;;22.10;41.26;100978.22;5051134;28;20675;-64
2021/01/04 08:08:33;;;;;;;1.70;1.23;;;;;;;22.16;41.27;100979.34;5051257;28;20188;-64
2021/01/04 08:11:25;;;;;;;3.53;1.30;;;;;;;22.22;41.24;100976.72;5001686;28;20214;-68
2021/01/04 08:14:16;;;;;;;2.20;1.10;;;;;;;22.27;41.42;100989.81;5033926;28;20230;-63
2021/01/04 08:16:53;;;;;;;3.50;1.17;;;;;;;22.30;41.43;100979.38;5051234;28;20188;-62
2021/01/04 08:19:20;;;;;;;1.40;1.10;;;;;;;22.35;41.17;100982.38;5033915;28;20199;-62
2021/01/04 08:22:21;;;;;;;2.37;1.20;;;;;;;22.42;41.24;100977.03;5034940;28;20206;-63
2021/01/04 08:24:48;;;;;;;2.27;1.07;;;;;;;22.47;40.81;100984.63;5041442;28;20221;-65
2021/01/04 08:27:14;;;;;;;2.40;1.00;;;;;;;22.50;40.74;100979.69;5011826;28;20349;-61
2021/01/04 08:29:40;;;;;;;1.20;1.07;;;;;;;22.55;40.64;100988.16;5052137;28;20185;-62
2021/01/04 08:32:17;;;;;;;3.80;1.30;;;;;;;22.61;40.71;100981.09;5035394;28;20207;-62
2021/01/04 08:34:44;;;;;;;1.40;1.30;;;;;;;22.65;40.87;100987.84;5035686;28;20893;-62
2021/01/04 08:37:12;;;;;;;3.37;1.10;;;;;;;22.69;40.76;100994.63;5029234;28;20203;-62
2021/01/04 08:39:44;;;;;;;1.40;1.30;;;;;;;22.74;40.84;100992.19;5053123;28;20184;-62
2021/01/04 08:42:20;;;;;;;2.70;1.13;;;;;;;22.80;40.61;100993.31;5053232;28;20272;-63
2021/01/04 08:45:01;;;;;;;1.47;1.10;;;;;;;22.85;40.81;100993.63;5053168;28;20281;-70
2021/01/04 08:47:37;;;;;;;1.50;1.00;;;;;;;22.89;40.63;100994.94;5053155;28;20662;-62
2021/01/04 08:50:14;;;;;;;2.20;1.00;;;;;;;22.93;40.47;101001.69;5053025;28;20211;-62
2021/01/04 08:52:46;;;;;;;2.67;1.30;;;;;;;22.99;40.45;101005.56;5035930;28;20257;-63
2021/01/04 08:55:23;;;;;;;1.63;1.40;;;;;;;23.03;40.72;101001.44;5053185;28;20303;-62
2021/01/04 08:57:49;;;;;;;1.80;1.70;;;;;;;23.06;40.39;101007.34;5018980;28;20196;-64
2021/01/04 09:00:23;;;;;;;2.40;2.20;;;;;;;23.12;40.53;100997.53;5002510;28;20267;-64
2021/01/04 09:02:49;;;;;;;6.33;3.00;;;;;;;23.16;40.64;101009.75;5035842;28;20208;-63
2021/01/04 09:05:35;;;;;;;3.00;2.70;;;;;;;23.21;40.70;101012.78;5035483;28;20230;-67
2021/01/04 09:08:03;;;;;;;3.37;3.07;;;;;;;23.27;40.72;101012.88;5021258;28;20194;-63
2021/01/04 09:10:39;;;;;;;3.20;2.90;;;;;;;23.32;40.81;101012.28;5018531;28;20203;-63
2021/01/04 09:13:21;;;;;;;3.30;3.00;;;;;;;23.36;40.67;101019.06;5034850;28;20270;-66
2021/01/04 09:15:48;;;;;;;4.37;3.20;;;;;;;23.39;40.89;101015.94;5020084;28;20235;-64
2021/01/04 09:18:30;;;;;;;3.83;3.53;;;;;;;23.45;40.65;101014.34;5018340;28;20187;-63
2021/01/04 09:21:01;;;;;;;3.53;3.33;;;;;;;23.49;40.67;101023.84;5018668;28;20184;-62
2021/01/04 09:23:34;;;;;;;3.40;3.10;;;;;;;23.52;40.79;101018.81;5018401;28;20216;-62
2021/01/04 09:26:23;;;;;;;4.65;3.50;;;;;;;23.57;40.79;101019.13;5033718;28;20200;-63
2021/01/04 09:29:04;;;;;;;4.00;3.67;;;;;;;23.61;40.67;101016.84;5045008;28;20533;-62
2021/01/04 09:31:30;;;;;;;5.43;3.53;;;;;;;23.63;40.63;101020.22;5045650;28;20224;-63
2021/01/04 09:33:56;;;;;;;4.53;3.80;;;;;;;23.67;40.45;101023.44;5029169;28;20199;-63
2021/01/04 09:39:29;;;;;;;3.80;3.50;;;;;;;23.73;40.31;101019.91;5067932;28;20680;-63
2021/01/04 09:42:00;;;;;;;3.83;3.50;;;;;;;23.77;40.23;101015.75;5025178;28;20214;-63
2021/01/04 09:44:26;;;;;;;4.55;3.60;;;;;;;23.79;40.20;101016.41;5064075;28;20643;-63
2021/01/04 09:47:00;;;;;;;4.20;3.58;;;;;;;23.83;40.30;101014.97;5027579;28;20192;-66
2021/01/04 09:49:38;;;;;;;4.13;3.38;;;;;;;23.86;40.08;101014.56;5053588;28;20199;-65
2021/01/04 09:52:25;;;;;;;4.88;3.78;;;;;;;23.89;39.92;101017.75;5019483;28;20219;-65
2021/01/04 09:54:55;;;;;;;5.15;3.40;;;;;;;23.92;39.89;101019.28;5020590;28;20204;-69
2021/01/04 09:57:22;;;;;;;7.70;3.90;;;;;;;23.92;39.78;101024.75;5020018;28;20176;-66
2021/01/04 09:59:49;;;;;;;5.25;3.50;;;;;;;23.95;39.79;101023.50;5036143;28;20766;-66
2021/01/04 10:02:25;;;;;;;5.35;3.63;;;;;;;23.96;39.62;101017.84;5053488;28;20168;-65
2021/01/04 10:04:53;;;;;;;5.75;3.55;;;;;;;23.98;39.56;101026.69;5019931;28;20239;-65
2021/01/04 10:07:26;;;;;;;3.92;3.53;;;;;;;23.99;39.60;101022.91;5053356;28;20246;-70
2021/01/04 10:09:52;;;;;;;4.93;3.83;;;;;;;24.01;39.33;101028.19;5003547;28;20223;-66
2021/01/04 10:12:20;;;;;;;7.03;3.30;;;;;;;24.02;39.43;101017.03;5014863;28;20693;-66
2021/01/04 10:14:46;;;;;;;8.27;3.38;;;;;;;24.02;39.44;101011.56;5006878;28;20216;-63
2021/01/04 10:17:12;;;;;;;5.57;3.47;;;;;;;24.03;39.54;101015.16;5024488;28;20260;-64
2021/01/04 10:19:56;;;;;;;6.50;3.75;;;;;;;24.05;39.47;101013.91;5019275;28;20172;-68
2021/01/04 10:22:37;;;;;;;8.80;4.20;;;;;;;24.07;39.33;101009.09;5020830;28;20191;-66
2021/01/04 10:25:53;;;;;;;5.07;3.15;;;;;;;24.08;39.46;101012.66;5035351;28;20220;-65
2021/01/04 10:28:19;;;;;;;9.05;4.00;;;;;;;24.08;39.28;101008.03;5005915;28;20188;-66
2021/01/04 10:30:46;;;;;;;5.50;3.88;;;;;;;24.10;39.62;101011.41;5035710;28;20214;-67
2021/01/04 10:33:23;;;;;;;11.88;4.78;;;;;;;24.14;39.69;101010.00;5052718;28;20196;-67
2021/01/04 10:36:13;;;;;;;8.60;4.95;;;;;;;24.16;39.86;101010.66;5029649;28;20182;-67
2021/01/04 10:39:02;;;;;;;8.93;5.10;;;;;;;24.17;39.73;101009.59;5055503;28;20207;-67
2021/01/04 10:41:29;;;;;;;11.68;5.35;;;;;;;24.19;39.76;101014.88;5052945;28;20232;-70
2021/01/04 10:44:24;;;;;;;18.13;5.78;;;;;;;24.22;39.73;101016.38;5038491;28;20203;-67
2021/01/04 10:47:03;;;;;;;11.32;5.60;;;;;;;24.23;39.79;101012.59;5072299;28;20180;-68
2021/01/04 10:49:34;;;;;;;14.30;6.32;;;;;;;24.24;39.78;101011.53;5038860;28;20171;-68
2021/01/04 10:52:00;;;;;;;13.27;6.13;;;;;;;24.23;40.02;101010.69;5038597;28;20206;-68
2021/01/04 10:54:42;;;;;;;13.40;6.53;;;;;;;24.26;39.59;101015.78;5038403;28;20203;-68
2021/01/04 10:57:33;;;;;;;12.75;5.55;;;;;;;24.27;39.80;101011.13;5072312;28;20684;-67
2021/01/04 11:00:22;;;;;;;14.55;5.65;;;;;;;24.28;39.86;101008.25;5054951;28;20176;-68
2021/01/04 11:02:49;;;;;;;12.00;5.82;;;;;;;24.27;39.65;101011.13;5054891;28;20180;-67
2021/01/04 11:05:18;;;;;;;16.02;6.40;;;;;;;24.27;39.59;101005.66;5072071;28;20219;-67
2021/01/04 11:07:44;;;;;;;11.73;5.65;;;;;;;24.27;39.68;100997.47;5054999;28;20188;-68
2021/01/04 11:10:26;;;;;;;14.80;6.20;;;;;;;24.29;39.60;101003.59;5072282;28;20245;-68
2021/01/04 11:12:57;;;;;;;11.98;5.78;;;;;;;24.30;39.59;101005.31;5072350;28;20187;-67
2021/01/04 11:15:25;;;;;;;14.15;5.90;;;;;;;24.31;39.56;101001.53;5072216;28;20268;-64
2021/01/04 11:18:01;;;;;;;12.35;5.78;;;;;;;24.33;39.49;101002.16;5054668;28;20187;-64
2021/01/04 11:20:27;;;;;;;12.32;5.80;;;;;;;24.32;39.38;100997.75;5072025;28;20190;-66
2021/01/04 11:23:04;;;;;;;14.55;5.88;;;;;;;24.34;39.38;100995.66;5071901;28;20626;-65
2021/01/04 11:25:30;;;;;;;12.07;5.57;;;;;;;24.33;39.34;100997.53;5054928;28;20234;-65
2021/01/04 11:27:56;;;;;;;11.50;5.65;;;;;;;24.34;39.54;100996.50;5037699;28;20190;-65
2021/01/04 11:30:23;;;;;;;11.25;5.28;;;;;;;24.35;39.41;100989.13;5071721;28;20691;-65
2021/01/04 11:32:49;;;;;;;9.15;5.05;;;;;;;24.35;39.34;100983.66;5071594;28;20240;-65
2021/01/04 11:35:15;;;;;;;9.32;5.07;;;;;;;24.37;39.36;100979.69;5071611;28;20203;-65
2021/01/04 11:37:41;;;;;;;12.32;5.40;;;;;;;24.37;39.45;100981.56;5071733;28;20253;-65
2021/01/04 11:40:11;;;;;;;10.63;5.00;;;;;;;24.38;39.42;100975.91;5071669;28;20214;-65
2021/01/04 11:42:37;;;;;;;8.55;4.95;;;;;;;24.39;39.25;100971.28;5038051;28;20188;-65
2021/01/04 11:45:08;;;;;;;12.10;5.20;;;;;;;24.41;39.43;100970.03;5052607;28;20553;-65
2021/01/04 11:47:37;;;;;;;12.10;4.70;;;;;;;24.40;39.41;100960.13;5021539;28;20235;-66
2021/01/04 11:50:08;;;;;;;11.63;5.70;;;;;;;24.41;39.35;100964.56;5049547;28;20193;-66
2021/01/04 11:52:37;;;;;;;11.23;5.05;;;;;;;24.41;39.35;100961.00;5043054;28;20176;-66
2021/01/04 11:55:06;;;;;;;9.88;5.25;;;;;;;24.42;39.37;100971.72;5001595;28;20242;-66
2021/01/04 11:57:33;;;;;;;7.75;4.93;;;;;;;24.42;39.39;100966.25;5033572;28;20259;-66
2021/01/04 11:59:59;;;;;;;12.23;5.05;;;;;;;24.42;39.23;100962.69;5051437;28;20201;-66
2021/01/04 12:02:25;;;;;;;11.05;4.90;;;;;;;24.41;39.00;100961.84;5034016;28;20196;-63
2021/01/04 12:04:51;;;;;;;11.88;5.40;;;;;;;24.42;39.25;100951.72;5050848;28;20212;-63
2021/01/04 12:07:17;;;;;;;7.72;4.57;;;;;;;24.42;39.16;100949.84;5059566;28;20198;-64